Terrell, TX

3:33 AM CST on December 18, 2014 (GMT -0600)
Layden Farms Talty, TX | Change Station
CLOSE
Current Station
Personal Weather Station
Location: Forney, TX
Elevation: 502 ft
Nearby Weather Stations

Elev 502 ft 32.70 °N, 96.40 °W | Updated 6 seconds ago

Overcast
Overcast
41.9 °F
Feels Like 38 °F
N
6.0
Wind Variable Wind from East
Gusts 0.0 mph

Today
High -- | Low -- °F
--% Chance of Precip.
Yesterday
High -- | Low -- °F
Precip. -- in
7:21 AM 5:21 PM
Waning Crescent, 16% visible
Pressure 30.14 in
Visibility 10.0 miles
Clouds Few 500 ft
Overcast 2000 ft
Windchill 38 °F
Dew Point 41 °F
Humidity 96%
Rainfall 0.07 in
Snow Depth Not available.
UV 0 out of 12
Pollen 8.20 out of 12
Air Quality Not available.
Flu Activity Not available.
SPECI KTRL 180901Z AUTO 10010KT 10SM FEW005 OVC020 06/04 A3014 RMK AO2 T00610044

More Conditions Fewer Conditions

Pressure 30.14 in
Visibility 10.0 miles
Clouds Few 500 ft
Overcast 2000 ft
Windchill 38 °F
Dew Point 41 °F
Humidity 96%
Rainfall 0.07 in
Snow Depth Not available.
UV 0 out of 12
Pollen 8.20 out of 12
Air Quality Not available.
Flu Activity Not available.
SPECI KTRL 180901Z AUTO 10010KT 10SM FEW005 OVC020 06/04 A3014 RMK AO2 T00610044

More Conditions Fewer Conditions

Nowcast | as of 11:52 PM CST on December 17, 2014

As light rain and scattered showers...southeast of a Bonham to Lampasas line....continues to move southeast overnight...light drizzle will fill in behind. It will be a cloudy...damp and cold night across the entire area. Some dense fog is possible in the late night hours.

×

10-Day Weather Forecast

Almanac

Astronomy

Dec. 18, 2014 Rise Set
Actual Time
Civil Twilight
Nautical Twilight
Astronomical Twilight
Moon
Length of Visible Light
Length of Day
Tomorrow will be .
, % of the Moon is Illuminated

Today's Extremes

State Highs State Lows

Community

WunderPhotos

Upload Photos

1,778,907 photos uploaded!

WunderBlogs® & News

Nearby

Air Quality

  Air Quality AQ Index Pollutant
Not available.

Snow Depth

Station Depth Elevation

Earthquake Activity

City Distance Mag. Time & Date
Minimum magnitude displayed is 2.5.

Coastal Water Temperatures

Place Temperature

Nearby Weather Stations